Latest Weather Observations for Salmon Gums RS

IDW60801

Issued at 6:02 pm WST Tuesday 28 April 2015 (issued every 30 minutes, with the page automatically refreshed every 10 minutes)

About weather observations | Map of weather stations | Latest weather observations for WA | Other Formats
Station Details ID: 012071 Name: SALMON GUMS RES.STN. Lat: -32.99 Lon: 121.62 Height: 249.0 m
Data from the previous 72 hours. | See also: Recent months at Salmon Gums RS
Date/Time
WST
Temp
°C
App
Temp
°C
Dew
Point
Rel
Hum
%
Delta-T
°C
Wind Press
QNH
hPa
Press
MSL
hPa
Rain
since 9 am
mm
Dir
 
Spd
km/h
Gust
km/h
Spd
kts
Gust
kts
28/06:00pm 15.1 12.6 4.8 50 4.9 ENE 7 7 4 4 - - 0.0
28/05:30pm 16.4 13.9 4.8 46 5.6 ENE 7 9 4 5 - - 0.0
28/05:00pm 18.0 14.3 4.6 41 6.5 ENE 13 17 7 9 - - 0.0
28/04:30pm 18.9 15.2 4.3 38 7.1 NE 13 24 7 13 - - 0.0
28/04:00pm 19.7 15.6 4.2 36 7.5 NE 15 22 8 12 - - 0.0
28/03:30pm 20.2 16.1 4.3 35 7.8 NNE 15 22 8 12 - - 0.0
28/03:00pm 20.3 16.7 4.8 36 7.6 NNE 13 22 7 12 - - 0.0
28/02:30pm 20.0 15.2 4.5 36 7.6 NE 19 28 10 15 - - 0.0
28/02:00pm 19.8 15.4 4.7 37 7.4 ENE 17 26 9 14 - - 0.0
28/01:30pm 19.4 15.4 4.7 38 7.2 NNE 15 24 8 13 - - 0.0
28/01:00pm 19.7 16.6 5.7 40 7.0 NNE 11 20 6 11 - - 0.0
28/12:30pm 18.8 15.3 5.6 42 6.5 ENE 13 22 7 12 - - 0.0
28/12:00pm 19.0 14.8 5.8 42 6.6 NE 17 26 9 14 - - 0.0
28/11:30am 19.6 15.2 6.7 43 6.6 NE 19 30 10 16 - - 0.0
28/11:00am 18.5 15.0 7.3 48 5.7 NNE 15 24 8 13 - - 0.0
28/10:30am 17.8 14.3 8.6 55 4.8 NE 17 24 9 13 - - 0.0
28/10:00am 17.4 14.0 9.3 59 4.3 NE 17 26 9 14 - - 0.0
28/09:30am 16.1 12.4 9.3 64 3.6 NE 19 30 10 16 - - 0.0
28/09:00am 15.0 11.1 9.4 69 2.9 NE 20 30 11 16 - - 0.0
28/08:30am 15.1 10.4 9.2 68 3.1 NE 24 32 13 17 - - 0.0
28/08:00am 13.4 10.5 9.5 77 2.0 NE 15 20 8 11 - - 0.0
28/07:30am 12.4 9.7 9.1 80 1.7 NE 13 20 7 11 - - 0.0
28/07:00am 11.8 9.1 9.0 83 1.4 NE 13 20 7 11 - - 0.0
28/06:30am 10.7 8.7 8.8 88 1.0 NE 9 13 5 7 - - 0.0
28/06:00am 9.7 7.9 8.0 89 0.8 ENE 7 11 4 6 - - 0.0
28/05:30am 9.7 7.5 7.8 88 0.9 ENE 9 13 5 7 - - 0.0
28/05:00am 9.8 7.2 7.9 88 0.9 ENE 11 15 6 8 - - 0.0
28/04:30am 9.6 7.0 7.9 89 0.8 ENE 11 15 6 8 - - 0.0
28/04:00am 9.1 6.8 7.5 90 0.8 ENE 9 15 5 8 - - 0.0
28/03:30am 8.3 6.3 6.9 91 0.7 NE 7 11 4 6 - - 0.0
28/03:00am 7.5 5.7 5.5 87 0.9 NE 4 6 2 3 - - 0.0
28/02:30am 8.9 7.3 6.5 85 1.1 ENE 4 6 2 3 - - 0.0
28/02:00am 9.9 7.6 7.3 84 1.3 ENE 9 11 5 6 - - 0.0
28/01:30am 10.6 7.9 7.5 81 1.5 ENE 11 17 6 9 - - 0.0
28/01:00am 10.8 7.8 7.7 81 1.5 ENE 13 17 7 9 - - 0.0
28/12:30am 11.1 7.7 7.8 80 1.6 ENE 15 19 8 10 - - 0.0
28/12:00am 11.2 7.9 8.1 81 1.5 ENE 15 20 8 11 - - 0.0
 
Date/Time
WST
Temp
°C
App
Temp
°C
Dew
Point
Rel
Hum
%
Delta-T
°C
Wind Press
QNH
hPa
Press
MSL
hPa
Rain
since 9 am
mm
Dir
 
Spd
km/h
Gust
km/h
Spd
kts
Gust
kts
27/11:30pm 11.4 8.5 8.3 81 1.5 ENE 13 17 7 9 - - 0.0
27/11:00pm 11.4 8.9 8.3 81 1.5 ENE 11 17 6 9 - - 0.0
27/10:30pm 12.1 9.3 8.6 79 1.8 ENE 13 20 7 11 - - 0.0
27/10:00pm 12.3 9.5 8.6 78 1.9 ENE 13 19 7 10 - - 0.0
27/09:30pm 12.6 10.3 9.1 79 1.8 ENE 11 15 6 8 - - 0.0
27/09:00pm 12.3 9.9 8.6 78 1.9 E 11 15 6 8 - - 0.0
27/08:30pm 12.7 10.7 8.8 77 2.0 ENE 9 13 5 7 - - 0.0
27/08:00pm 13.2 11.3 8.9 75 2.2 E 9 13 5 7 - - 0.0
27/07:30pm 13.7 11.1 9.4 75 2.2 E 13 19 7 10 - - 0.0
27/07:00pm 13.9 10.9 9.3 74 2.4 E 15 22 8 12 - - 0.0
27/06:30pm 14.7 11.7 9.3 70 2.8 E 15 20 8 11 - - 0.0
27/06:00pm 16.0 12.5 8.7 62 3.8 E 17 26 9 14 - - 0.0
27/05:30pm 16.5 13.2 8.0 57 4.4 E 15 19 8 10 - - 0.0
27/05:00pm 17.7 13.3 7.2 50 5.3 E 20 26 11 14 - - 0.0
27/04:30pm 18.9 14.8 6.1 43 6.4 E 17 28 9 15 - - 0.0
27/04:00pm 18.9 15.5 6.1 43 6.4 ENE 13 20 7 11 - - 0.0
27/03:30pm 19.0 14.4 5.8 42 6.6 E 19 26 10 14 - - 0.0
27/03:00pm 19.4 15.1 5.1 39 7.0 ENE 17 28 9 15 - - 0.0
27/02:30pm 18.8 14.6 5.6 42 6.5 E 17 24 9 13 - - 0.0
27/02:00pm 19.9 15.6 5.2 38 7.3 ENE 17 28 9 15 - - 0.0
27/01:30pm 20.2 15.4 4.7 36 7.6 ENE 19 28 10 15 - - 0.0
27/01:00pm 18.6 14.4 5.5 42 6.5 ENE 17 33 9 18 - - 0.0
27/12:30pm 19.0 15.1 7.1 46 6.1 ENE 17 24 9 13 - - 0.0
27/12:00pm 18.8 14.8 6.6 45 6.2 NE 17 24 9 13 - - 0.0
27/11:30am 19.3 15.3 6.8 44 6.4 NE 17 28 9 15 - - 0.0
27/11:00am 17.8 14.3 7.2 50 5.4 NNE 15 24 8 13 - - 0.0
27/10:30am 18.1 14.0 7.8 51 5.3 NE 19 30 10 16 - - 0.0
27/10:00am 17.8 14.8 9.2 57 4.5 ENE 15 22 8 12 - - 0.0
27/09:30am 16.8 13.4 9.0 60 4.1 NE 17 24 9 13 - - 0.0
27/09:00am 15.6 12.8 9.9 69 3.0 NE 15 24 8 13 - - 0.0
27/08:30am 14.4 11.4 9.4 72 2.6 NE 15 22 8 12 - - 0.0
27/08:00am 12.5 10.9 10.2 86 1.2 NE 9 13 5 7 - - 0.0
27/07:30am 10.4 10.2 9.2 92 0.6 CALM 0 0 0 0 - - 0.0
27/07:00am 9.4 8.9 8.0 91 0.7 CALM 0 0 0 0 - - 0.0
27/06:30am 8.7 8.1 7.2 90 0.7 CALM 0 0 0 0 - - 0.0
27/06:00am 9.5 8.3 7.9 90 0.8 ENE 4 6 2 3 - - 0.0
27/05:30am 10.1 9.0 8.4 89 0.8 NE 4 6 2 3 - - 0.0
27/05:00am 10.6 9.6 8.9 89 0.9 NE 4 6 2 3 - - 0.0
27/04:30am 11.0 9.5 9.3 89 0.9 ENE 7 9 4 5 - - 0.0
27/04:00am 11.0 9.6 9.4 90 0.8 NE 7 11 4 6 - - 0.0
27/03:30am 10.9 9.5 9.7 92 0.6 ENE 7 13 4 7 - - 0.0
27/03:00am 10.7 9.3 9.6 93 0.6 ENE 7 9 4 5 - - 0.0
27/02:30am 9.6 8.1 8.5 93 0.5 ENE 6 7 3 4 - - 0.0
27/02:00am 9.2 8.4 8.0 92 0.6 ESE 2 4 1 2 - - 0.0
27/01:30am 9.2 8.0 8.1 93 0.5 ESE 4 6 2 3 - - 0.0
27/01:00am 9.3 8.1 8.2 93 0.5 ESE 4 6 2 3 - - 0.0
27/12:30am 8.3 6.9 7.1 92 0.6 ESE 4 6 2 3 - - 0.0
27/12:00am 8.5 7.1 7.3 92 0.6 ESE 4 6 2 3 - - 0.0
 
Date/Time
WST
Temp
°C
App
Temp
°C
Dew
Point
Rel
Hum
%
Delta-T
°C
Wind Press
QNH
hPa
Press
MSL
hPa
Rain
since 9 am
mm
Dir
 
Spd
km/h
Gust
km/h
Spd
kts
Gust
kts
26/11:30pm 8.5 6.7 7.3 92 0.6 ESE 6 6 3 3 - - 0.0
26/11:00pm 9.1 7.8 7.7 91 0.7 ESE 4 6 2 3 - - 0.0
26/10:30pm 9.0 7.3 7.5 90 0.7 ESE 6 7 3 4 - - 0.0
26/10:00pm 10.5 9.1 8.8 89 0.8 E 6 9 3 5 - - 0.0
26/09:30pm 11.0 9.5 9.1 88 1.0 ESE 7 9 4 5 - - 0.0
26/09:00pm 11.4 9.9 9.3 87 1.1 SE 7 11 4 6 - - 0.0
26/08:30pm 12.1 10.4 9.7 85 1.2 SE 9 11 5 6 - - 0.0
26/08:00pm 12.8 10.7 9.6 81 1.7 SE 11 17 6 9 - - 0.0
26/07:30pm 13.4 10.9 9.6 78 2.0 SE 13 17 7 9 - - 0.0
26/07:00pm 14.1 11.5 9.3 73 2.5 SSE 13 20 7 11 - - 0.0
26/06:30pm 14.1 11.7 8.5 69 2.8 SSE 11 15 6 8 - - 0.0
26/06:00pm 12.8 11.7 5.0 59 3.7 CALM 0 0 0 0 - - 0.0
26/05:30pm 14.3 12.1 5.1 54 4.4 SSE 6 6 3 3 - - 0.0
26/05:00pm 16.6 14.5 5.9 49 5.3 SE 6 7 3 4 - - 0.0
26/04:30pm 17.6 14.8 5.2 44 6.0 SE 9 13 5 7 - - 0.0
26/04:00pm 18.7 14.3 4.8 40 6.8 SE 17 26 9 14 - - 0.0
26/03:30pm 19.3 16.8 3.9 36 7.4 WSW 6 7 3 4 - - 0.0
26/03:00pm 18.1 16.1 4.3 40 6.6 ENE 4 6 2 3 - - 0.0
26/02:30pm 19.1 16.0 3.7 36 7.4 ESE 9 15 5 8 - - 0.0
26/02:00pm 19.2 17.1 3.8 36 7.4 WSW 4 7 2 4 - - 0.0
26/01:30pm 17.7 16.4 4.3 41 6.4 CALM 0 2 0 1 - - 0.0
26/01:00pm 17.2 15.0 5.2 45 5.8 E 6 11 3 6 - - 0.0
26/12:30pm 17.3 15.4 4.9 44 6.0 NNE 4 9 2 5 - - 0.0
26/12:00pm 18.2 16.7 6.7 47 5.8 N 4 9 2 5 - - 0.0
26/11:30am 16.8 14.4 5.4 47 5.5 NE 7 15 4 8 - - 0.0
26/11:00am 17.6 14.6 5.9 46 5.8 NE 11 17 6 9 - - 0.0
26/10:30am 16.9 13.7 4.9 45 5.8 ENE 11 15 6 8 - - 0.0
26/10:00am 15.7 14.1 8.7 63 3.6 N 7 13 4 7 - - 0.0
26/09:30am 15.2 13.4 9.3 68 3.1 ENE 9 15 5 8 - - 0.0
26/09:00am 14.6 13.0 10.2 75 2.3 NE 9 13 5 7 - - 0.0
26/08:30am 12.5 11.8 11.4 93 0.6 ENE 6 9 3 5 - - 0.0
26/08:00am 9.0 8.6 8.2 95 0.4 CALM 0 0 0 0 - - 0.0
26/07:30am 5.3 4.1 4.6 95 0.3 CALM 0 0 0 0 - - 0.0
26/07:00am 1.5 -0.4 0.6 94 0.3 CALM 0 0 0 0 - - 0.0
26/06:30am 0.7 -1.3 -0.2 94 0.3 CALM 0 0 0 0 - - 0.0
26/06:00am 0.6 -1.4 -0.3 94 0.3 CALM 0 6 0 3 - - 0.0
26/05:30am 0.8 -1.2 -0.2 93 0.4 CALM 0 0 0 0 - - 0.0
26/05:00am 1.1 -0.9 0.1 93 0.4 CALM 0 0 0 0 - - 0.0
26/04:30am 1.1 -0.9 0.1 93 0.4 CALM 0 0 0 0 - - 0.0
26/04:00am 1.2 -0.8 0.0 92 0.4 CALM 0 0 0 0 - - 0.0
26/03:30am 1.5 -0.4 0.3 92 0.4 CALM 0 0 0 0 - - 0.0
26/03:00am 1.8 -0.1 0.6 92 0.5 CALM 0 0 0 0 - - 0.0
26/02:30am 1.8 -0.1 0.5 91 0.5 CALM 0 0 0 0 - - 0.0
26/02:00am 2.3 0.5 1.0 91 0.5 CALM 0 0 0 0 - - 0.0
26/01:30am 2.8 1.0 1.3 90 0.6 CALM 0 0 0 0 - - 0.0
26/01:00am 3.3 1.6 1.8 90 0.6 CALM 0 0 0 0 - - 0.0
26/12:30am 3.7 2.0 2.1 89 0.6 CALM 0 0 0 0 - - 0.0
26/12:00am 4.4 2.9 2.8 89 0.7 CALM 0 0 0 0 - - 0.0
 
Date/Time
WST
Temp
°C
App
Temp
°C
Dew
Point
Rel
Hum
%
Delta-T
°C
Wind Press
QNH
hPa
Press
MSL
hPa
Rain
since 9 am
mm
Dir
 
Spd
km/h
Gust
km/h
Spd
kts
Gust
kts
25/11:30pm 5.0 3.5 3.2 88 0.8 CALM 0 0 0 0 - - 0.0
25/11:00pm 5.7 4.3 3.7 87 0.9 CALM 0 0 0 0 - - 0.0
25/10:30pm 6.5 5.3 4.5 87 0.9 CALM 0 0 0 0 - - 0.0
25/10:00pm 6.9 5.7 4.6 85 1.0 CALM 0 2 0 1 - - 0.0
25/09:30pm 8.2 6.5 5.7 84 1.1 SE 4 6 2 3 - - 0.0
25/09:00pm 9.2 7.5 5.8 79 1.6 SE 4 6 2 3 - - 0.0
25/08:30pm 10.5 8.1 6.8 78 1.8 SE 9 9 5 5 - - 0.0
25/08:00pm 10.9 8.5 7.0 77 1.9 SE 9 11 5 6 - - 0.0
25/07:30pm 11.9 9.5 7.2 73 2.3 SSE 9 11 5 6 - - 0.0
25/07:00pm 13.1 10.9 8.0 71 2.6 SSE 9 11 5 6 - - 0.0
25/06:30pm 13.9 11.3 7.9 67 3.0 SSE 11 13 6 7 - - 0.0

Other Formats:

Comma delimited format used in spreadsheet applications
http://www.bom.gov.au/fwo/IDW60801/IDW60801.95639.axf

JavaScript Object Notation format (JSON) in row-major order
http://www.bom.gov.au/fwo/IDW60801/IDW60801.95639.json